ADDS METAR Data INFO
IDs: Format: Raw Decoded Include TAF

Data at: 1506 UTC 11 Dec 2017

KTAN 111452Z AUTO 25008KT 10SM SCT070 BKN080 OVC100 02/M04 A2999 RMK AO2 SLP157 T00171044 51007
KTAN 111352Z AUTO 25007KT 10SM FEW055 OVC070 01/M05 A2999 RMK AO2 SLP156 T00111050
KTAN 111252Z AUTO 26007KT 10SM OVC070 01/M05 A2998 RMK AO2 SLP152 T00061050
KTAN 111152Z AUTO 24004KT 10SM BKN070 OVC080 01/M05 A2997 RMK AO2 SLP150 70040 T00061050 10017 20006 53011
KTAN 111052Z AUTO 24004KT 10SM OVC050 01/M06 A2996 RMK AO2 SLP145 T00111056
KTAN 110952Z AUTO 23004KT 10SM OVC065 01/M06 A2995 RMK AO2 SLP140 T00111056
KTAN 110852Z AUTO 23005KT 10SM OVC060 01/M06 A2994 RMK AO2 SLP139 T00111056 56008
KTAN 110752Z AUTO 23004KT 10SM OVC090 01/M06 A2995 RMK AO2 SLP141 T00111056
KTAN 110652Z AUTO VRB05KT 10SM OVC042 02/M05 A2996 RMK AO2 SLP144 T00171050
KTAN 110552Z AUTO 24005KT 10SM BKN046 BKN080 OVC095 02/M05 A2997 RMK AO2 SLP147 T00171050 10017 21033 51001
KTAN 110452Z AUTO 24006KT 10SM OVC047 02/M05 A2996 RMK AO2 SLP147 T00171050 400331033
KTAN 110352Z AUTO VRB03KT 10SM OVC050 01/M04 A2997 RMK AO2 SLP148 T00111044
KTAN 110252Z AUTO 00000KT 10SM FEW060 M03/M04 A2996 RMK AO2 SLP147 T10281039 50008
KTAN 110152Z AUTO 19003KT 10SM CLR M01/M05 A2997 RMK AO2 SLP147 T10061050
KTAN 110052Z AUTO 23004KT 10SM CLR 01/M05 A2996 RMK AO2 SLP145 T00061050
KTAN 102352Z AUTO 21004KT 10SM CLR 01/M04 A2994 RMK AO2 SLP138 60015 T00061044 10033 21022 51022
KTAN 102252Z AUTO 19003KT 10SM CLR M01/M04 A2992 RMK AO2 SLP132 T10061039
KTAN 102152Z AUTO 21004KT 10SM CLR 00/M04 A2991 RMK AO2 SLP127 T00001039
KTAN 102052Z AUTO 23003KT 10SM CLR 02/M04 A2987 RMK AO2 RAE1958 SLP116 P0001 60015 T00221044 53025
KTAN 101952Z AUTO 29007KT 10SM -RA FEW035 02/M04 A2985 RMK AO2 RAE13B29 SLP107 P0005 T00221039
KTAN 101852Z AUTO 27009G17KT 10SM -RA CLR 03/M04 A2981 RMK AO2 SLP096 P0009 T00331039
KTAN 101752Z AUTO 27008KT 10SM -RA CLR 03/M04 A2980 RMK AO2 RAB1655 SLP090 P0012 60025 T00281039 10028 21011 50002
KTAN 101652Z AUTO 28009KT 10SM CLR 02/M03 A2980 RMK AO2 RAB00E07B40E51 SLP092 P0010 T00221033
KTAN 101552Z AUTO VRB06KT 10SM CLR 02/M03 A2980 RMK AO2 RAB36E45 SLP092 P0003 T00171033
KTAN 101452Z AUTO 28004KT 10SM CLR 01/M03 A2979 RMK AO2 SLP088 T00061028 51027
KTAN 101352Z AUTO 26003KT 10SM SCT120 00/M02 A2977 RMK AO2 SLP081 T00001022
KTAN 101252Z AUTO 27005KT 10SM SCT120 M01/M02 A2974 RMK AO2 SLP072 T10061022
KTAN 101202Z AUTO 27003KT 10SM BKN030 M01/M02 A2972 RMK AO2 T10061017
KTAN 101152Z AUTO 25005KT 9SM OVC028 M01/M02 A2971 RMK AO2 SNB05E50 SLP062 P0000 60000 70007 T10061017 10000 21006 53024
KTAN 101129Z AUTO 27004KT 6SM -SN BR BKN027 OVC060 M01/M02 A2970 RMK AO2 SNB05 P0000 T10061017
KTAN 101052Z AUTO 28004KT 8SM BKN065 OVC080 M01/M02 A2968 RMK AO2 SNB12E50 SLP050 P0000 T10061017
KTAN 100952Z AUTO 26003KT 10SM OVC075 M01/M02 A2966 RMK AO2 SNE17 SLP043 P0000 T10061017
KTAN 100852Z AUTO 29004KT 7SM -SN FEW044 OVC060 M01/M02 A2964 RMK AO2 SNB50 SLP037 P0000 60000 T10061017 50012
KTAN 100813Z AUTO 30005KT 10SM SCT013 OVC055 M01/M02 A2964 RMK AO2 T10061017
KTAN 100752Z AUTO 30005KT 10SM OVC012 M01/M02 A2964 RMK AO2 SNE16B31E40 SLP038 P0000 T10061017
KTAN 100741Z AUTO 31003KT 9SM BKN012 OVC050 M01/M01 A2963 RMK AO2 SNE16B31E40 P0000 T10061011
KTAN 100727Z AUTO 30004KT 9SM SCT010 OVC050 M01/M01 A2963 RMK AO2 SNE16 P0000 T10061011
KTAN 100652Z AUTO 32004KT 3SM -SN BR BKN011 OVC027 M01/M01 A2962 RMK AO2 SLP030 P0000 T10061011
KTAN 100600Z AUTO 32006KT 4SM -SN BR OVC010 00/M01 A2961 RMK AO2 CIG 007V013 P0000 T00001011
KTAN 100552Z AUTO 31006KT 4SM -SN BR OVC008 00/M01 A2960 RMK AO2 SNE0453B17 CIG 006V012 SLP025 P0001 60004 T00001011 10006 20000 58002
KTAN 100452Z AUTO 31005KT 4SM -SN BR OVC008 00/M01 A2961 RMK AO2 CIG 005V012 SLP027 P0000 T00001006 400220000
KTAN 100441Z AUTO 32005KT 3SM -SN BR OVC008 00/M01 A2961 RMK AO2 P0000 T00001006
KTAN 100413Z AUTO 33005KT 2SM -SN BR OVC007 00/M01 A2960 RMK AO2 P0000 T00001006
KTAN 100352Z AUTO 33005KT 4SM -SN BR OVC007 00/M01 A2961 RMK AO2 CIG 005V011 SLP027 P0001 T00001006